createdAt,value
2023-01-08T00:00:50.484Z,6.68
2023-01-08T00:01:50.461Z,6.67
2023-01-08T00:02:50.447Z,6.66
2023-01-08T00:03:50.448Z,6.64
2023-01-08T00:04:50.461Z,6.6
2023-01-08T00:05:50.462Z,6.57
2023-01-08T00:06:50.447Z,6.55
2023-01-08T00:07:50.461Z,6.52
2023-01-08T00:08:50.460Z,6.48
2023-01-08T00:09:50.460Z,6.45
2023-01-08T00:10:50.448Z,6.46
2023-01-08T00:11:50.461Z,6.45
2023-01-08T00:12:50.463Z,6.45
2023-01-08T00:13:50.461Z,6.48
2023-01-08T00:14:50.449Z,6.51
2023-01-08T00:15:50.462Z,6.52
2023-01-08T00:16:50.462Z,6.53
2023-01-08T00:17:50.461Z,6.55
2023-01-08T00:18:50.449Z,6.56
2023-01-08T00:19:50.462Z,6.57
2023-01-08T00:20:50.463Z,6.58
2023-01-08T00:21:50.449Z,6.6
2023-01-08T00:22:50.450Z,6.63
2023-01-08T00:23:50.462Z,6.65
2023-01-08T00:24:50.463Z,6.67
2023-01-08T00:25:50.449Z,6.68
2023-01-08T00:26:50.463Z,6.67
2023-01-08T00:27:50.463Z,6.66
2023-01-08T00:28:50.463Z,6.68
2023-01-08T00:29:50.450Z,6.68
2023-01-08T00:30:50.463Z,6.65
2023-01-08T00:31:50.463Z,6.65
2023-01-08T00:32:50.463Z,6.66
2023-01-08T00:33:50.451Z,6.67
2023-01-08T00:34:50.464Z,6.67
2023-01-08T00:35:50.464Z,6.63
2023-01-08T00:36:50.450Z,6.58
2023-01-08T00:37:50.450Z,6.49
2023-01-08T00:38:50.464Z,6.42
2023-01-08T00:39:50.464Z,6.36
2023-01-08T00:40:50.451Z,6.33
2023-01-08T00:41:50.465Z,6.29
2023-01-08T00:42:50.463Z,6.26
2023-01-08T00:43:50.464Z,6.24
2023-01-08T00:44:50.451Z,6.24
2023-01-08T00:45:50.464Z,6.24
2023-01-08T00:46:50.464Z,6.25
2023-01-08T00:47:50.465Z,6.28
2023-01-08T00:48:50.452Z,6.31
2023-01-08T00:49:50.465Z,6.34
2023-01-08T00:50:50.465Z,6.39
2023-01-08T00:51:50.465Z,6.42
2023-01-08T00:52:50.452Z,6.46
2023-01-08T00:53:50.465Z,6.46
2023-01-08T00:54:58.698Z,6.45
2023-01-08T00:55:50.452Z,6.41
2023-01-08T00:56:50.453Z,6.39
2023-01-08T00:57:50.466Z,6.35
2023-01-08T00:58:50.467Z,6.34
2023-01-08T00:59:50.452Z,6.33
2023-01-08T01:00:50.507Z,6.31
2023-01-08T01:01:50.466Z,6.3
2023-01-08T01:02:50.465Z,6.31
2023-01-08T01:03:50.453Z,6.32
2023-01-08T01:04:58.700Z,6.31
2023-01-08T01:05:50.465Z,6.3
2023-01-08T01:06:50.465Z,6.3
2023-01-08T01:07:50.451Z,6.3
2023-01-08T01:08:50.467Z,6.3
2023-01-08T01:09:50.467Z,6.29
2023-01-08T01:10:50.467Z,6.27
2023-01-08T01:11:50.454Z,6.26
2023-01-08T01:12:50.466Z,6.23
2023-01-08T01:13:50.468Z,6.2
2023-01-08T01:14:50.454Z,6.17
2023-01-08T01:15:50.454Z,6.15
2023-01-08T01:16:50.467Z,6.14
2023-01-08T01:17:50.467Z,6.16
2023-01-08T01:18:50.454Z,6.17
2023-01-08T01:19:50.532Z,6.17
2023-01-08T01:20:50.468Z,6.18
2023-01-08T01:21:50.468Z,6.21
2023-01-08T01:22:50.454Z,6.22
2023-01-08T01:23:50.468Z,6.23
2023-01-08T01:24:50.468Z,6.24
2023-01-08T01:25:50.468Z,6.25
2023-01-08T01:26:50.455Z,6.25
2023-01-08T01:27:50.468Z,6.23
2023-01-08T01:28:50.468Z,6.24
2023-01-08T01:29:50.468Z,6.28
2023-01-08T01:30:50.456Z,6.32
2023-01-08T01:31:50.470Z,6.33
2023-01-08T01:32:50.469Z,6.35
2023-01-08T01:33:50.455Z,6.38
2023-01-08T01:34:50.456Z,6.38
2023-01-08T01:35:50.469Z,6.36
2023-01-08T01:36:59.728Z,6.36
2023-01-08T01:37:50.456Z,6.35
2023-01-08T01:38:50.470Z,6.33
2023-01-08T01:39:50.468Z,6.32
2023-01-08T01:40:50.468Z,6.32
2023-01-08T01:41:50.456Z,6.33
2023-01-08T01:42:50.470Z,6.32
2023-01-08T01:43:50.535Z,6.32
2023-01-08T01:44:50.470Z,6.31
2023-01-08T01:45:50.456Z,6.32
2023-01-08T01:46:50.470Z,6.3
2023-01-08T01:47:50.470Z,6.29
2023-01-08T01:48:50.470Z,6.28
2023-01-08T01:49:50.457Z,6.28
2023-01-08T01:50:50.470Z,6.3
2023-01-08T01:51:50.471Z,6.34
2023-01-08T01:52:50.457Z,6.38
2023-01-08T01:53:50.458Z,6.38
2023-01-08T01:54:50.471Z,6.38
2023-01-08T01:55:50.496Z,6.37
2023-01-08T01:56:50.457Z,6.38
2023-01-08T01:57:50.471Z,6.36
2023-01-08T01:58:50.471Z,6.33
2023-01-08T01:59:50.470Z,6.31
2023-01-08T02:00:50.458Z,6.29
2023-01-08T02:01:50.470Z,6.28
2023-01-08T02:02:50.472Z,6.25
2023-01-08T02:03:50.471Z,6.23
2023-01-08T02:04:50.459Z,6.21
2023-01-08T02:05:50.472Z,6.17
2023-01-08T02:06:50.472Z,6.16
2023-01-08T02:07:50.471Z,6.17
2023-01-08T02:08:50.459Z,6.17
2023-01-08T02:09:50.472Z,6.16
2023-01-08T02:10:50.472Z,6.18
2023-01-08T02:11:50.459Z,6.2
2023-01-08T02:12:50.459Z,6.21
2023-01-08T02:13:50.471Z,6.21
2023-01-08T02:14:50.471Z,6.23
2023-01-08T02:15:50.459Z,6.26
2023-01-08T02:16:50.474Z,6.3
2023-01-08T02:17:50.473Z,6.34
2023-01-08T02:18:50.472Z,6.39
2023-01-08T02:19:50.459Z,6.43
2023-01-08T02:20:50.473Z,6.47
2023-01-08T02:21:50.473Z,6.48
2023-01-08T02:22:50.473Z,6.51
2023-01-08T02:23:50.460Z,6.52
2023-01-08T02:24:50.473Z,6.53
2023-01-08T02:25:50.474Z,6.55
2023-01-08T02:26:50.473Z,6.56
2023-01-08T02:27:50.461Z,6.56
2023-01-08T02:28:50.474Z,6.56
2023-01-08T02:29:50.475Z,6.57
2023-01-08T02:30:50.460Z,6.58
2023-01-08T02:31:50.461Z,6.57
2023-01-08T02:32:50.474Z,6.58
2023-01-08T02:33:50.537Z,6.59
2023-01-08T02:34:50.461Z,6.62
2023-01-08T02:35:50.474Z,6.61
2023-01-08T02:36:50.474Z,6.61
2023-01-08T02:37:50.473Z,6.63
2023-01-08T02:38:50.461Z,6.65
2023-01-08T02:39:50.475Z,6.65
2023-01-08T02:40:50.476Z,6.65
2023-01-08T02:41:50.475Z,6.66
2023-01-08T02:42:50.462Z,6.66
2023-01-08T02:43:50.475Z,6.63
2023-01-08T02:44:50.475Z,6.62
2023-01-08T02:45:50.460Z,6.63
2023-01-08T02:46:50.463Z,6.61
2023-01-08T02:47:50.475Z,6.59
2023-01-08T02:48:50.476Z,6.59
2023-01-08T02:49:50.462Z,6.59
2023-01-08T02:50:50.540Z,6.58
2023-01-08T02:51:50.476Z,6.57
2023-01-08T02:52:50.475Z,6.57
2023-01-08T02:53:50.463Z,6.55
2023-01-08T02:54:50.476Z,6.5
2023-01-08T02:55:50.476Z,6.45
2023-01-08T02:56:50.476Z,6.43
2023-01-08T02:57:50.464Z,6.45
2023-01-08T02:58:50.476Z,6.47
2023-01-08T02:59:50.477Z,6.5
2023-01-08T03:00:50.477Z,6.55
2023-01-08T03:01:50.464Z,6.58
2023-01-08T03:02:50.478Z,6.64
2023-01-08T03:03:50.477Z,6.71
2023-01-08T03:04:50.462Z,6.8
2023-01-08T03:05:50.464Z,6.85
2023-01-08T03:06:50.477Z,6.91
2023-01-08T03:07:50.477Z,6.97
2023-01-08T03:08:50.464Z,7.03
2023-01-08T03:09:50.477Z,7.03
2023-01-08T03:10:50.478Z,7.01
2023-01-08T03:11:50.478Z,7.01
2023-01-08T03:12:50.464Z,7
2023-01-08T03:13:50.478Z,6.97
2023-01-08T03:14:50.478Z,6.94
2023-01-08T03:15:50.477Z,6.92
2023-01-08T03:16:50.465Z,6.9
2023-01-08T03:17:50.478Z,6.9
2023-01-08T03:18:50.478Z,6.92
2023-01-08T03:19:50.478Z,6.96
2023-01-08T03:20:50.466Z,7.01
2023-01-08T03:21:50.520Z,7.04
2023-01-08T03:22:50.479Z,7.11
2023-01-08T03:23:50.465Z,7.16
2023-01-08T03:24:50.466Z,7.2
2023-01-08T03:25:50.479Z,7.22
2023-01-08T03:26:50.479Z,7.23
2023-01-08T03:27:50.466Z,7.25
2023-01-08T03:28:50.504Z,7.25
2023-01-08T03:29:50.478Z,7.27
2023-01-08T03:30:50.479Z,7.31
2023-01-08T03:31:50.466Z,7.34
2023-01-08T03:32:50.480Z,7.34
2023-01-08T03:33:50.479Z,7.34
2023-01-08T03:34:50.480Z,7.35
2023-01-08T03:35:50.465Z,7.35
2023-01-08T03:36:50.480Z,7.34
2023-01-08T03:37:50.481Z,7.3
2023-01-08T03:38:50.479Z,7.26
2023-01-08T03:39:50.468Z,7.22
2023-01-08T03:40:50.481Z,7.18
2023-01-08T03:41:50.480Z,7.15
2023-01-08T03:42:50.467Z,7.12
2023-01-08T03:43:50.466Z,7.09
2023-01-08T03:44:50.481Z,7.06
2023-01-08T03:45:50.481Z,7.06
2023-01-08T03:46:50.468Z,7.07
2023-01-08T03:47:50.481Z,7.06
2023-01-08T03:48:50.480Z,7.07
2023-01-08T03:49:50.481Z,7.09
2023-01-08T03:50:50.468Z,7.09
2023-01-08T03:51:50.480Z,7.06
2023-01-08T03:52:50.481Z,7.03
2023-01-08T03:53:50.482Z,7.01
2023-01-08T03:54:50.469Z,6.99
2023-01-08T03:55:50.482Z,6.96
2023-01-08T03:56:50.482Z,6.94
2023-01-08T03:57:50.467Z,6.93
2023-01-08T03:58:50.469Z,6.93
2023-01-08T03:59:50.482Z,6.93
2023-01-08T04:00:50.482Z,6.94
2023-01-08T04:01:50.469Z,6.96
2023-01-08T04:02:50.470Z,6.98
2023-01-08T04:03:50.483Z,6.99
2023-01-08T04:04:50.482Z,7.01
2023-01-08T04:05:50.469Z,7.03
2023-01-08T04:06:50.483Z,7.03
2023-01-08T04:07:50.483Z,7.04
2023-01-08T04:08:50.482Z,7.07
2023-01-08T04:09:50.469Z,7.1
2023-01-08T04:10:50.482Z,7.11
2023-01-08T04:11:50.484Z,7.13
2023-01-08T04:12:50.484Z,7.17
2023-01-08T04:13:50.471Z,7.18
2023-01-08T04:14:50.484Z,7.17
2023-01-08T04:15:50.485Z,7.18
2023-01-08T04:16:50.469Z,7.19
2023-01-08T04:17:50.471Z,7.19
2023-01-08T04:18:50.484Z,7.17
2023-01-08T04:19:50.484Z,7.16
2023-01-08T04:20:50.471Z,7.15
2023-01-08T04:21:50.484Z,7.16
2023-01-08T04:22:50.485Z,7.17
2023-01-08T04:23:50.484Z,7.16
2023-01-08T04:24:50.471Z,7.12
2023-01-08T04:25:50.485Z,7.08
2023-01-08T04:26:50.484Z,7.05
2023-01-08T04:27:50.484Z,7.06
2023-01-08T04:28:50.472Z,7.09
2023-01-08T04:29:50.485Z,7.1
2023-01-08T04:30:50.485Z,7.1
2023-01-08T04:31:50.485Z,7.14
2023-01-08T04:32:50.473Z,7.18
2023-01-08T04:33:50.549Z,7.22
2023-01-08T04:34:50.487Z,7.25
2023-01-08T04:35:50.472Z,7.25
2023-01-08T04:36:50.473Z,7.25
2023-01-08T04:37:50.485Z,7.29
2023-01-08T04:38:50.486Z,7.34
2023-01-08T04:39:50.473Z,7.41
2023-01-08T04:40:50.485Z,7.42
2023-01-08T04:41:50.486Z,7.43
2023-01-08T04:42:50.486Z,7.41
2023-01-08T04:43:50.472Z,7.36
2023-01-08T04:44:50.487Z,7.31
2023-01-08T04:45:50.531Z,7.3
2023-01-08T04:46:50.486Z,7.3
2023-01-08T04:47:50.474Z,7.29
2023-01-08T04:48:50.487Z,7.27
2023-01-08T04:49:50.487Z,7.26
2023-01-08T04:50:50.487Z,7.26
2023-01-08T04:51:50.475Z,7.26
2023-01-08T04:52:59.746Z,7.28
2023-01-08T04:53:50.489Z,7.32
2023-01-08T04:54:50.474Z,7.36
2023-01-08T04:55:50.475Z,7.38
2023-01-08T04:56:50.487Z,7.4
2023-01-08T04:57:50.487Z,7.43
2023-01-08T04:58:50.475Z,7.43
2023-01-08T04:59:50.487Z,7.42
2023-01-08T05:00:50.488Z,7.4
2023-01-08T05:01:50.488Z,7.39
2023-01-08T05:02:50.473Z,7.4
2023-01-08T05:03:50.489Z,7.39
2023-01-08T05:04:50.490Z,7.4
2023-01-08T05:05:50.488Z,7.45
2023-01-08T05:06:50.476Z,7.49
2023-01-08T05:07:50.489Z,7.53
2023-01-08T05:08:50.490Z,7.58
2023-01-08T05:09:50.499Z,7.61
2023-01-08T05:10:50.477Z,7.63
2023-01-08T05:11:50.489Z,7.65
2023-01-08T05:12:50.491Z,7.69
2023-01-08T05:13:50.475Z,7.74
2023-01-08T05:14:50.477Z,7.78
2023-01-08T05:15:50.490Z,7.83
2023-01-08T05:16:50.490Z,7.9
2023-01-08T05:17:50.477Z,7.91
2023-01-08T05:18:50.490Z,7.92
2023-01-08T05:19:50.489Z,7.97
2023-01-08T05:20:50.489Z,8.03
2023-01-08T05:21:50.478Z,8.05
2023-01-08T05:22:50.491Z,8.03
2023-01-08T05:23:50.492Z,8.01
2023-01-08T05:24:50.491Z,8.02
2023-01-08T05:25:50.478Z,8.04
2023-01-08T05:26:50.491Z,8.06
2023-01-08T05:27:50.491Z,8.1
2023-01-08T05:28:50.478Z,8.12
2023-01-08T05:29:50.479Z,8.14
2023-01-08T05:30:50.491Z,8.18
2023-01-08T05:31:50.493Z,8.22
2023-01-08T05:32:50.478Z,8.29
2023-01-08T05:33:50.479Z,8.3
2023-01-08T05:34:50.491Z,8.32
2023-01-08T05:35:50.491Z,8.37
2023-01-08T05:36:50.479Z,8.42
2023-01-08T05:37:50.492Z,8.45
2023-01-08T05:38:50.491Z,8.47
2023-01-08T05:39:50.491Z,8.53
2023-01-08T05:40:50.480Z,8.56
2023-01-08T05:41:50.493Z,8.55
2023-01-08T05:42:50.493Z,8.55
2023-01-08T05:43:50.492Z,8.57
2023-01-08T05:44:50.478Z,8.56
2023-01-08T05:45:50.492Z,8.53
2023-01-08T05:46:50.492Z,8.52
2023-01-08T05:47:50.480Z,8.52
2023-01-08T05:48:50.481Z,8.49
2023-01-08T05:49:50.494Z,8.46
2023-01-08T05:50:50.494Z,8.45
2023-01-08T05:51:50.481Z,8.46
2023-01-08T05:52:50.494Z,8.47
2023-01-08T05:53:50.493Z,8.53
2023-01-08T05:54:50.494Z,8.6
2023-01-08T05:55:50.481Z,8.64
2023-01-08T05:56:50.494Z,8.68
2023-01-08T05:57:50.514Z,8.71
2023-01-08T05:58:50.495Z,8.75
2023-01-08T05:59:50.482Z,8.76
2023-01-08T06:00:50.495Z,8.71
2023-01-08T06:01:50.494Z,8.6
2023-01-08T06:02:50.495Z,8.54
2023-01-08T06:03:50.483Z,8.5
2023-01-08T06:04:50.495Z,8.51
2023-01-08T06:05:50.495Z,8.52
2023-01-08T06:06:50.481Z,8.56
2023-01-08T06:07:50.483Z,8.59
2023-01-08T06:08:50.496Z,8.59
2023-01-08T06:09:50.521Z,8.63
2023-01-08T06:10:50.483Z,8.66
2023-01-08T06:11:50.496Z,8.7
2023-01-08T06:12:50.496Z,8.72
2023-01-08T06:13:50.496Z,8.74
2023-01-08T06:14:50.483Z,8.76
2023-01-08T06:15:50.496Z,8.79
2023-01-08T06:16:50.498Z,8.82
2023-01-08T06:17:50.496Z,8.84
2023-01-08T06:18:50.484Z,8.85
2023-01-08T06:19:50.497Z,8.87
2023-01-08T06:20:50.498Z,8.89
2023-01-08T06:21:50.484Z,8.89
2023-01-08T06:22:50.485Z,8.89
2023-01-08T06:23:50.498Z,8.89
2023-01-08T06:24:50.498Z,8.92
2023-01-08T06:25:50.485Z,8.92
2023-01-08T06:26:50.485Z,8.85
2023-01-08T06:27:50.498Z,8.8
2023-01-08T06:28:50.498Z,8.75
2023-01-08T06:29:50.485Z,8.72
2023-01-08T06:30:59.757Z,8.71
2023-01-08T06:31:50.499Z,8.68
2023-01-08T06:32:50.499Z,8.67
2023-01-08T06:33:50.486Z,8.68
2023-01-08T06:34:50.499Z,8.68
2023-01-08T06:35:50.498Z,8.7
2023-01-08T06:36:50.498Z,8.72
2023-01-08T06:37:50.487Z,8.74
2023-01-08T06:38:50.499Z,8.75
2023-01-08T06:39:50.500Z,8.76
2023-01-08T06:40:50.499Z,8.75
2023-01-08T06:41:50.485Z,8.75
2023-01-08T06:42:50.500Z,8.74
2023-01-08T06:43:50.501Z,8.77
2023-01-08T06:44:50.487Z,8.81
2023-01-08T06:45:50.488Z,8.85
2023-01-08T06:46:50.501Z,8.89
2023-01-08T06:47:50.502Z,8.96
2023-01-08T06:48:50.487Z,8.97
2023-01-08T06:49:50.501Z,8.97
2023-01-08T06:50:50.501Z,9.01
2023-01-08T06:51:50.501Z,9.06
2023-01-08T06:52:50.488Z,9.1
2023-01-08T06:53:50.501Z,9.12
2023-01-08T06:54:50.503Z,9.14
2023-01-08T06:55:50.501Z,9.14
2023-01-08T06:56:50.489Z,9.1
2023-01-08T06:57:50.501Z,9.05
2023-01-08T06:58:50.502Z,9.03
2023-01-08T06:59:50.489Z,9.06
2023-01-08T07:00:50.490Z,9.07
2023-01-08T07:01:50.502Z,9.07
2023-01-08T07:02:50.503Z,9.07
2023-01-08T07:03:50.489Z,9.08
2023-01-08T07:04:50.490Z,9.09
2023-01-08T07:05:50.503Z,9.1
2023-01-08T07:06:50.502Z,9.14
2023-01-08T07:07:50.490Z,9.16
2023-01-08T07:08:50.503Z,9.18
2023-01-08T07:09:50.503Z,9.24
2023-01-08T07:10:50.503Z,9.29
2023-01-08T07:11:50.491Z,9.34
2023-01-08T07:12:50.504Z,9.35
2023-01-08T07:13:50.504Z,9.34
2023-01-08T07:14:50.503Z,9.32
2023-01-08T07:15:50.492Z,9.32
2023-01-08T07:16:50.528Z,9.33
2023-01-08T07:17:50.504Z,9.35
2023-01-08T07:18:50.491Z,9.39
2023-01-08T07:19:50.492Z,9.43
2023-01-08T07:21:50.505Z,9.52
2023-01-08T07:22:50.492Z,9.57
2023-01-08T07:23:50.504Z,9.6
2023-01-08T07:24:50.505Z,9.64
2023-01-08T07:25:55.869Z,9.66
2023-01-08T07:26:50.492Z,9.64
2023-01-08T07:27:50.506Z,9.6
2023-01-08T07:28:50.506Z,9.56
2023-01-08T07:29:50.506Z,9.53
2023-01-08T07:30:50.492Z,9.47
2023-01-08T07:31:50.506Z,9.45
2023-01-08T07:32:50.507Z,9.43
2023-01-08T07:33:50.507Z,9.42
2023-01-08T07:34:50.494Z,9.42
2023-01-08T07:35:50.506Z,9.41
2023-01-08T07:36:50.506Z,9.41
2023-01-08T07:37:50.494Z,9.42
2023-01-08T07:38:50.495Z,9.43
2023-01-08T07:39:50.507Z,9.43
2023-01-08T07:40:50.509Z,9.46
2023-01-08T07:41:50.494Z,9.51
2023-01-08T07:42:50.509Z,9.56
2023-01-08T07:43:50.507Z,9.62
2023-01-08T07:44:50.507Z,9.71
2023-01-08T07:45:50.495Z,9.78
2023-01-08T07:46:50.508Z,9.81
2023-01-08T07:47:50.508Z,9.83
2023-01-08T07:48:50.508Z,9.87
2023-01-08T07:49:50.496Z,9.93
2023-01-08T07:50:50.508Z,9.97
2023-01-08T07:51:50.509Z,10.02
2023-01-08T07:52:50.509Z,10.08
2023-01-08T07:53:50.497Z,10.12
2023-01-08T07:54:50.510Z,10.16
2023-01-08T07:55:50.511Z,10.18
2023-01-08T07:56:50.496Z,10.21
2023-01-08T07:57:50.497Z,10.25
2023-01-08T07:58:50.510Z,10.3
2023-01-08T07:59:50.510Z,10.33
2023-01-08T08:00:50.497Z,10.31
2023-01-08T08:01:50.511Z,10.25
2023-01-08T08:02:50.510Z,10.18
2023-01-08T08:03:50.510Z,10.13
2023-01-08T08:04:50.498Z,10.05
2023-01-08T08:05:50.511Z,10.01
2023-01-08T08:06:50.511Z,10
2023-01-08T08:07:50.511Z,10.01
2023-01-08T08:08:50.499Z,10.02
2023-01-08T08:09:59.771Z,10.03
2023-01-08T08:10:50.513Z,10.04
2023-01-08T08:11:50.512Z,10.07
2023-01-08T08:12:50.499Z,10.08
2023-01-08T08:13:50.512Z,10.12
2023-01-08T08:14:50.513Z,10.18
2023-01-08T08:15:50.499Z,10.27
2023-01-08T08:16:50.499Z,10.32
2023-01-08T08:17:50.512Z,10.33
2023-01-08T08:18:50.512Z,10.32
2023-01-08T08:19:50.498Z,10.32
2023-01-08T08:20:50.512Z,10.33
2023-01-08T08:21:50.514Z,10.35
2023-01-08T08:22:50.514Z,10.4
2023-01-08T08:23:50.501Z,10.44
2023-01-08T08:24:50.514Z,10.44
2023-01-08T08:26:50.514Z,10.47
2023-01-08T08:27:50.502Z,10.46
2023-01-08T08:28:50.515Z,10.44
2023-01-08T08:29:50.516Z,10.42
2023-01-08T08:30:50.500Z,10.39
2023-01-08T08:31:50.502Z,10.34
2023-01-08T08:32:50.515Z,10.31
2023-01-08T08:33:50.515Z,10.34
2023-01-08T08:34:50.501Z,10.39
2023-01-08T08:35:50.516Z,10.44
2023-01-08T08:36:50.516Z,10.48
2023-01-08T08:37:50.516Z,10.54
2023-01-08T08:38:50.503Z,10.59
2023-01-08T08:39:50.516Z,10.63
2023-01-08T08:40:50.558Z,10.66
2023-01-08T08:41:50.517Z,10.71
2023-01-08T08:42:50.503Z,10.76
2023-01-08T08:43:50.517Z,10.81
2023-01-08T08:44:50.517Z,10.84
2023-01-08T08:45:50.516Z,10.86
2023-01-08T08:46:50.505Z,10.88
2023-01-08T08:47:50.517Z,10.92
2023-01-08T08:48:50.519Z,10.99
2023-01-08T08:49:50.505Z,11.03
2023-01-08T08:50:50.505Z,11.08
2023-01-08T08:51:50.517Z,11.09
2023-01-08T08:52:50.558Z,11.11
2023-01-08T08:53:50.505Z,11.15
2023-01-08T08:54:50.519Z,11.16
2023-01-08T08:55:50.518Z,11.14
2023-01-08T08:56:50.518Z,11.12
2023-01-08T08:57:50.504Z,11.09
2023-01-08T08:58:50.520Z,11.06
2023-01-08T08:59:50.520Z,11.03
2023-01-08T09:00:50.520Z,11.01
2023-01-08T09:01:50.505Z,11.01
2023-01-08T09:02:50.520Z,11.03
2023-01-08T09:03:50.521Z,11.09
2023-01-08T09:04:50.507Z,11.13
2023-01-08T09:05:50.508Z,11.14
2023-01-08T09:06:50.521Z,11.16
2023-01-08T09:07:50.522Z,11.19
2023-01-08T09:08:50.508Z,11.2
2023-01-08T09:09:50.521Z,11.2
2023-01-08T09:10:50.522Z,11.22
2023-01-08T09:11:50.521Z,11.25
2023-01-08T09:12:50.509Z,11.28
2023-01-08T09:13:50.522Z,11.3
2023-01-08T09:14:50.521Z,11.29
2023-01-08T09:15:50.522Z,11.29
2023-01-08T09:16:50.510Z,11.28
2023-01-08T09:17:50.523Z,11.25
2023-01-08T09:18:50.524Z,11.23
2023-01-08T09:19:50.523Z,11.22
2023-01-08T09:20:50.511Z,11.21
2023-01-08T09:21:50.523Z,11.21
2023-01-08T09:22:50.525Z,11.24
2023-01-08T09:23:50.510Z,11.28
2023-01-08T09:24:50.511Z,11.29
2023-01-08T09:25:58.759Z,11.28
2023-01-08T09:26:50.524Z,11.25
2023-01-08T09:27:50.509Z,11.23
2023-01-08T09:28:50.525Z,11.2
2023-01-08T09:29:50.525Z,11.2
2023-01-08T09:30:50.524Z,11.22
2023-01-08T09:31:50.512Z,11.25
2023-01-08T09:32:50.525Z,11.25
2023-01-08T09:33:50.545Z,11.26
2023-01-08T09:34:50.525Z,11.27
2023-01-08T09:35:50.511Z,11.28
2023-01-08T09:36:50.526Z,11.29
2023-01-08T09:37:50.526Z,11.32
2023-01-08T09:38:50.526Z,11.35
2023-01-08T09:39:50.514Z,11.4
2023-01-08T09:40:50.528Z,11.42
2023-01-08T09:41:50.528Z,11.41
2023-01-08T09:42:50.514Z,11.37
2023-01-08T09:43:50.515Z,11.32
2023-01-08T09:44:50.527Z,11.29
2023-01-08T09:45:50.528Z,11.27
2023-01-08T09:46:50.514Z,11.28
2023-01-08T09:47:50.528Z,11.3
2023-01-08T09:48:59.786Z,11.35
2023-01-08T09:49:50.528Z,11.38
2023-01-08T09:50:50.515Z,11.43
2023-01-08T09:51:50.529Z,11.45
2023-01-08T09:52:50.528Z,11.44
2023-01-08T09:53:50.528Z,11.46
2023-01-08T09:54:50.517Z,11.49
2023-01-08T09:55:50.528Z,11.52
2023-01-08T09:56:50.531Z,11.54
2023-01-08T09:57:50.530Z,11.55
2023-01-08T09:58:50.517Z,11.52
2023-01-08T09:59:50.530Z,11.5
2023-01-08T10:00:50.531Z,11.5
2023-01-08T10:01:50.517Z,11.5
2023-01-08T10:02:50.518Z,11.51
2023-01-08T10:03:50.531Z,11.52
2023-01-08T10:04:50.531Z,11.54
2023-01-08T10:05:50.518Z,11.55
2023-01-08T10:06:50.531Z,11.55
2023-01-08T10:07:50.532Z,11.56
2023-01-08T10:08:50.532Z,11.57
2023-01-08T10:09:50.519Z,11.6
2023-01-08T10:10:50.532Z,11.58
2023-01-08T10:11:50.532Z,11.58
2023-01-08T10:12:50.532Z,11.6
2023-01-08T10:13:50.520Z,11.63
2023-01-08T10:14:50.533Z,11.67
2023-01-08T10:15:50.534Z,11.69
2023-01-08T10:16:50.518Z,11.7
2023-01-08T10:17:50.521Z,11.69
2023-01-08T10:18:50.534Z,11.7
2023-01-08T10:19:50.534Z,11.74
2023-01-08T10:20:50.519Z,11.76
2023-01-08T10:21:50.521Z,11.76
2023-01-08T10:22:50.534Z,11.73
2023-01-08T10:23:50.533Z,11.73
2023-01-08T10:24:50.521Z,11.75
2023-01-08T10:25:50.535Z,11.78
2023-01-08T10:26:50.535Z,11.83
2023-01-08T10:27:50.535Z,11.87
2023-01-08T10:28:50.523Z,11.92
2023-01-08T10:29:50.536Z,11.97
2023-01-08T10:30:50.537Z,12.02
2023-01-08T10:31:50.535Z,12.07
2023-01-08T10:32:50.522Z,12.08
2023-01-08T10:33:50.600Z,12.09
2023-01-08T10:34:50.537Z,12.1
2023-01-08T10:35:50.523Z,12.12
2023-01-08T10:36:50.524Z,12.12
2023-01-08T10:37:50.537Z,12.13
2023-01-08T10:38:50.538Z,12.13
2023-01-08T10:39:50.524Z,12.15
2023-01-08T10:40:50.602Z,12.16
2023-01-08T10:41:50.538Z,12.17
2023-01-08T10:42:50.538Z,12.17
2023-01-08T10:43:50.523Z,12.19
2023-01-08T10:44:50.538Z,12.18
2023-01-08T10:45:50.537Z,12.18
2023-01-08T10:46:50.539Z,12.19
2023-01-08T10:47:50.526Z,12.21
2023-01-08T10:48:50.539Z,12.23
2023-01-08T10:49:50.540Z,12.25
2023-01-08T10:50:50.539Z,12.3
2023-01-08T10:51:50.527Z,12.33
2023-01-08T10:52:50.540Z,12.32
2023-01-08T10:53:50.540Z,12.31
2023-01-08T10:54:50.540Z,12.34
2023-01-08T10:55:50.528Z,12.37
2023-01-08T10:56:50.540Z,12.41
2023-01-08T10:57:50.541Z,12.45
2023-01-08T10:58:50.526Z,12.49
2023-01-08T10:59:50.527Z,12.5
2023-01-08T11:00:50.541Z,12.48
2023-01-08T11:01:50.541Z,12.49
2023-01-08T11:02:50.528Z,12.49
2023-01-08T11:03:50.542Z,12.47
2023-01-08T11:04:50.542Z,12.46
2023-01-08T11:05:50.541Z,12.46
2023-01-08T11:06:50.529Z,12.47
2023-01-08T11:07:50.543Z,12.47
2023-01-08T11:08:50.544Z,12.47
2023-01-08T11:09:50.543Z,12.47
2023-01-08T11:10:50.531Z,12.44
2023-01-08T11:11:50.544Z,12.44
2023-01-08T11:12:50.544Z,12.45
2023-01-08T11:13:50.531Z,12.46
2023-01-08T11:14:50.531Z,12.46
2023-01-08T11:15:50.544Z,12.47
2023-01-08T11:16:50.545Z,12.49
2023-01-08T11:17:50.531Z,12.52
2023-01-08T11:18:50.544Z,12.54
2023-01-08T11:19:50.545Z,12.54
2023-01-08T11:20:50.545Z,12.53
2023-01-08T11:21:50.532Z,12.52
2023-01-08T11:22:50.546Z,12.52
2023-01-08T11:23:50.572Z,12.54
2023-01-08T11:24:50.546Z,12.57
2023-01-08T11:25:50.534Z,12.57
2023-01-08T11:26:50.547Z,12.57
2023-01-08T11:27:50.548Z,12.56
2023-01-08T11:28:50.547Z,12.57
2023-01-08T11:29:50.534Z,12.58
2023-01-08T11:30:50.571Z,12.59
2023-01-08T11:31:50.547Z,12.62
2023-01-08T11:32:50.534Z,12.67
2023-01-08T11:33:50.535Z,12.71
2023-01-08T11:34:50.548Z,12.74
2023-01-08T11:35:50.549Z,12.77
2023-01-08T11:36:50.535Z,12.8
2023-01-08T11:37:50.549Z,12.8
2023-01-08T11:38:50.549Z,12.82
2023-01-08T11:39:50.548Z,12.86
2023-01-08T11:40:50.536Z,12.89
2023-01-08T11:41:50.550Z,12.88
2023-01-08T11:42:50.554Z,12.86
2023-01-08T11:43:50.550Z,12.84
2023-01-08T11:44:50.537Z,12.83
2023-01-08T11:45:50.550Z,12.83
2023-01-08T11:46:50.551Z,12.84
2023-01-08T11:47:50.550Z,12.88
2023-01-08T11:48:50.538Z,12.92
2023-01-08T11:49:50.615Z,12.95
2023-01-08T11:50:50.552Z,13
2023-01-08T11:51:50.537Z,13.04
2023-01-08T11:52:50.539Z,13.05
2023-01-08T11:53:50.552Z,13.04
2023-01-08T11:54:50.553Z,13.05
2023-01-08T11:55:50.539Z,13.09
2023-01-08T11:56:50.553Z,13.1
2023-01-08T11:57:50.553Z,13.12
2023-01-08T11:58:50.553Z,13.11
2023-01-08T11:59:50.540Z,13.12
2023-01-08T12:00:50.553Z,13.15
2023-01-08T12:01:50.573Z,13.18
2023-01-08T12:02:50.554Z,13.2
2023-01-08T12:03:50.540Z,13.21
2023-01-08T12:04:50.554Z,13.21
2023-01-08T12:05:50.554Z,13.24
2023-01-08T12:06:50.555Z,13.31
2023-01-08T12:07:50.542Z,13.37
2023-01-08T12:08:50.554Z,13.38
2023-01-08T12:09:50.555Z,13.38
2023-01-08T12:10:50.542Z,13.4
2023-01-08T12:11:50.543Z,13.43
2023-01-08T12:12:50.555Z,13.45
2023-01-08T12:13:50.557Z,13.49
2023-01-08T12:14:50.541Z,13.49
2023-01-08T12:15:50.557Z,13.49
2023-01-08T12:16:50.557Z,13.47
2023-01-08T12:17:50.556Z,13.46
2023-01-08T12:18:50.544Z,13.45
2023-01-08T12:19:50.557Z,13.43
2023-01-08T12:20:50.559Z,13.45
2023-01-08T12:21:50.558Z,13.49
2023-01-08T12:22:50.545Z,13.5
2023-01-08T12:23:50.558Z,13.46
2023-01-08T12:24:50.560Z,13.46
2023-01-08T12:25:50.544Z,13.46
2023-01-08T12:26:50.546Z,13.44
2023-01-08T12:27:50.558Z,13.45
2023-01-08T12:28:50.560Z,13.48
2023-01-08T12:29:50.545Z,13.54
2023-01-08T12:30:50.547Z,13.57
2023-01-08T12:31:50.559Z,13.62
2023-01-08T12:32:50.559Z,13.66
2023-01-08T12:33:50.547Z,13.68
2023-01-08T12:34:50.561Z,13.69
2023-01-08T12:35:50.561Z,13.73
2023-01-08T12:36:50.561Z,13.8
2023-01-08T12:37:50.548Z,13.84
2023-01-08T12:38:50.562Z,13.89
2023-01-08T12:39:50.563Z,13.95
2023-01-08T12:40:50.561Z,14
2023-01-08T12:41:50.547Z,13.99
2023-01-08T12:42:50.563Z,13.96
2023-01-08T12:43:50.564Z,13.94
2023-01-08T12:44:50.550Z,13.92
2023-01-08T12:45:50.548Z,13.89
2023-01-08T12:46:50.564Z,13.89
2023-01-08T12:47:50.564Z,13.93
2023-01-08T12:48:50.551Z,13.99
2023-01-08T12:49:50.551Z,14.01
2023-01-08T12:50:50.564Z,14.04
2023-01-08T12:51:50.565Z,14.08
2023-01-08T12:52:50.551Z,14.14
2023-01-08T12:53:50.565Z,14.17
2023-01-08T12:54:50.565Z,14.21
2023-01-08T12:55:50.566Z,14.25
2023-01-08T12:56:50.553Z,14.28
2023-01-08T12:57:50.566Z,14.26
2023-01-08T12:58:50.567Z,14.25
2023-01-08T12:59:50.565Z,14.27
2023-01-08T13:00:50.554Z,14.31
2023-01-08T13:01:50.567Z,14.31
2023-01-08T13:02:50.567Z,14.31
2023-01-08T13:03:50.554Z,14.31
2023-01-08T13:04:50.555Z,14.3
2023-01-08T13:05:50.568Z,14.26
2023-01-08T13:06:50.569Z,14.25
2023-01-08T13:07:50.555Z,14.27
2023-01-08T13:08:50.556Z,14.27
2023-01-08T13:09:50.568Z,14.27
2023-01-08T13:10:50.568Z,14.28
2023-01-08T13:11:50.556Z,14.3
2023-01-08T13:12:50.570Z,14.27